Terminal Aerodrome Forecast
Issued by NWS Topeka, KS

Home | Current Version | Previous Version | Text Only | Print | Product List | Glossary On
Versions: 1 2 3 4 5 6 7 8 9 10 11 12 13 14 15 16 17 18 19 20 21 22 23 24 25 26
617
FTUS43 KTOP 291720
TAFTOP
TAF
KTOP 291720Z 2918/3018 08014G22KT P6SM BKN010
     FM292100 05010KT 4SM -SHRA VCTS OVC015CB
     FM300200 02008KT 3SM BR VCTS OVC007CB
     FM300500 36008KT 3SM BR VCSH OVC003=

USA.gov is the U.S. government's official web portal to all federal, state and local government web resources and services.